Time;durP1;ratioP1;P1;durP2;ratioP2;P2;SDS_P1;SDS_P2;PMS_P1;PMS_P2;Temp;Humidity;BMP_temperature;BMP_pressure;BME280_temperature;BME280_humidity;BME280_pressure;Samples;Min_cycle;Max_cycle;Signal;HPM_P1;HPM_P2
2021/09/13 00:01:39;;;;;;;24.10;21.70;;;;;;;16.85;90.43;98936.80;111179;1204;61940;-84
2021/09/13 00:04:05;;;;;;;24.20;21.80;;;;;;;16.87;90.40;98932.67;111200;1204;63989;-84
2021/09/13 00:06:32;;;;;;;24.50;20.70;;;;;;;16.88;90.33;98930.38;111256;1204;61869;-84
2021/09/13 00:08:59;;;;;;;24.10;20.90;;;;;;;16.89;90.14;98927.95;111264;1196;61895;-84
2021/09/13 00:11:26;;;;;;;23.90;21.30;;;;;;;16.89;90.11;98926.96;111190;1204;75511;-84
2021/09/13 00:13:52;;;;;;;23.30;20.90;;;;;;;16.86;90.09;98927.50;111264;1204;61814;-84
2021/09/13 00:16:19;;;;;;;21.20;18.60;;;;;;;16.85;90.02;98926.05;111211;1205;64038;-84
2021/09/13 00:18:46;;;;;;;22.70;20.50;;;;;;;16.82;89.75;98932.00;111202;1204;61902;-84
2021/09/13 00:21:13;;;;;;;22.50;20.30;;;;;;;16.81;89.93;98929.86;111267;1198;61910;-84
2021/09/13 00:23:40;;;;;;;21.40;19.20;;;;;;;16.79;89.95;98927.02;111211;1204;65454;-84
2021/09/13 00:26:07;;;;;;;22.40;20.30;;;;;;;16.76;89.81;98930.66;111214;1204;61816;-84
2021/09/13 00:28:33;;;;;;;22.40;20.10;;;;;;;16.72;89.88;98933.88;111221;1197;63945;-84
2021/09/13 00:31:00;;;;;;;23.80;21.20;;;;;;;16.69;90.08;98939.30;111168;1196;61881;-84
2021/09/13 00:33:27;;;;;;;22.50;20.30;;;;;;;16.68;90.18;98934.20;111241;1199;62003;-84
2021/09/13 00:35:54;;;;;;;24.60;21.90;;;;;;;16.66;90.35;98933.33;111267;1204;65556;-84
2021/09/13 00:38:20;;;;;;;25.00;21.90;;;;;;;16.65;90.65;98930.86;111174;1204;61867;-83
2021/09/13 00:40:47;;;;;;;23.00;20.60;;;;;;;16.66;90.44;98930.66;111230;1204;62331;-84
2021/09/13 00:43:13;;;;;;;24.40;20.60;;;;;;;16.67;90.42;98932.40;111258;1204;61879;-84
2021/09/13 00:45:40;;;;;;;22.90;20.50;;;;;;;16.69;90.62;98931.29;111270;1197;61812;-84
2021/09/13 00:48:07;;;;;;;20.20;18.10;;;;;;;16.70;90.24;98931.58;111245;1204;74170;-84
2021/09/13 00:50:34;;;;;;;21.30;19.00;;;;;;;16.67;89.99;98931.07;111247;1204;61867;-83
2021/09/13 00:53:01;;;;;;;20.40;18.30;;;;;;;16.64;90.15;98925.77;111251;1204;64136;-83
2021/09/13 00:55:28;;;;;;;21.10;18.90;;;;;;;16.65;90.28;98926.29;111240;1195;62006;-83
2021/09/13 00:57:55;;;;;;;20.60;18.40;;;;;;;16.63;90.24;98924.64;111243;1204;61903;-84
2021/09/13 01:00:23;;;;;;;19.70;17.80;;;;;;;16.60;90.21;98926.69;111218;1204;65441;-84
2021/09/13 01:02:50;;;;;;;19.60;17.40;;;;;;;16.61;90.44;98926.42;111250;1204;61830;-84
2021/09/13 01:05:17;;;;;;;20.00;17.90;;;;;;;16.60;90.29;98923.73;111219;1203;62614;-84
2021/09/13 01:07:44;;;;;;;22.30;19.80;;;;;;;16.57;90.24;98924.16;111290;1198;61906;-84
2021/09/13 01:10:11;;;;;;;21.50;19.30;;;;;;;16.57;90.51;98923.61;111216;1198;61842;-84
2021/09/13 01:12:37;;;;;;;23.30;20.80;;;;;;;16.57;90.83;98925.06;111270;1204;66467;-83
2021/09/13 01:15:05;;;;;;;24.20;20.50;;;;;;;16.55;91.21;98925.24;111287;1204;61921;-85
2021/09/13 01:17:32;;;;;;;22.90;20.60;;;;;;;16.56;91.31;98927.41;111262;1204;63996;-85
2021/09/13 01:19:59;;;;;;;23.00;19.90;;;;;;;16.59;91.35;98925.52;111220;1197;61975;-85
2021/09/13 01:22:27;;;;;;;22.20;20.00;;;;;;;16.60;91.25;98925.42;111265;1200;61974;-84
2021/09/13 01:24:54;;;;;;;22.60;20.40;;;;;;;16.60;91.23;98925.33;111222;1204;67746;-84
2021/09/13 01:27:21;;;;;;;23.80;20.30;;;;;;;16.58;91.21;98923.02;111135;1197;61899;-84
2021/09/13 01:29:47;;;;;;;25.90;20.90;;;;;;;16.55;91.22;98921.77;111255;1204;62401;-84
2021/09/13 01:32:14;;;;;;;24.40;20.60;;;;;;;16.53;91.32;98915.50;111262;1204;61909;-84
2021/09/13 01:34:41;;;;;;;25.00;22.20;;;;;;;16.53;91.48;98913.17;111195;1196;61896;-85
2021/09/13 01:37:07;;;;;;;22.10;19.90;;;;;;;16.54;91.62;98910.60;111227;1204;65453;-84
2021/09/13 01:39:34;;;;;;;22.70;20.40;;;;;;;16.54;91.50;98909.15;111283;1204;61815;-84
2021/09/13 01:42:01;;;;;;;22.50;20.30;;;;;;;16.53;91.35;98911.92;111232;1204;74466;-84
2021/09/13 01:44:27;;;;;;;23.50;21.20;;;;;;;16.49;91.32;98910.17;111254;1204;61812;-84
2021/09/13 01:46:55;;;;;;;21.60;19.50;;;;;;;16.44;91.40;98911.30;111265;1197;61902;-84
2021/09/13 01:49:22;;;;;;;23.70;21.10;;;;;;;16.41;91.51;98913.23;111270;1204;66496;-84
2021/09/13 01:51:48;;;;;;;23.90;21.50;;;;;;;16.38;91.40;98913.13;111254;1204;61841;-84
2021/09/13 01:54:15;;;;;;;22.60;20.40;;;;;;;16.33;91.49;98912.89;111216;1197;62629;-85
2021/09/13 01:56:42;;;;;;;22.10;19.90;;;;;;;16.26;91.36;98915.46;111228;1197;61896;-84
2021/09/13 01:59:08;;;;;;;23.90;21.50;;;;;;;16.19;91.45;98921.33;111268;1198;61819;-84
2021/09/13 02:01:35;;;;;;;23.60;21.20;;;;;;;16.17;91.68;98922.28;111238;1204;66479;-86
2021/09/13 02:04:03;;;;;;;23.10;20.70;;;;;;;16.16;91.81;98917.80;111223;1204;61893;-84
2021/09/13 02:06:31;;;;;;;22.90;20.70;;;;;;;16.16;91.92;98916.58;111269;1204;63800;-84
2021/09/13 02:08:58;;;;;;;23.60;21.10;;;;;;;16.15;91.93;98918.09;111267;1204;61851;-86
2021/09/13 02:11:25;;;;;;;24.20;21.70;;;;;;;16.15;92.17;98920.07;111250;1198;61810;-84
2021/09/13 02:13:51;;;;;;;24.40;21.90;;;;;;;16.12;92.22;98922.86;111247;1204;66800;-86
2021/09/13 02:16:18;;;;;;;25.40;22.50;;;;;;;16.11;92.41;98919.73;111275;1204;61899;-84
2021/09/13 02:18:45;;;;;;;24.40;22.00;;;;;;;16.09;92.43;98917.40;111203;1198;62613;-86
2021/09/13 02:21:11;;;;;;;24.70;22.30;;;;;;;16.09;92.43;98921.34;111190;1196;61902;-85
2021/09/13 02:23:38;;;;;;;27.20;24.10;;;;;;;16.10;92.56;98922.52;111227;1197;61773;-86
2021/09/13 02:26:05;;;;;;;27.70;24.50;;;;;;;16.11;92.70;98923.84;111209;1204;66802;-86
2021/09/13 02:28:31;;;;;;;29.10;25.90;;;;;;;16.14;92.83;98925.42;111291;1197;61970;-84
2021/09/13 02:30:58;;;;;;;27.90;24.90;;;;;;;16.14;92.57;98922.88;111236;1203;64039;-84
2021/09/13 02:33:25;;;;;;;29.10;23.80;;;;;;;16.14;92.53;98926.46;111240;1204;61867;-84
2021/09/13 02:35:51;;;;;;;26.90;24.10;;;;;;;16.14;92.58;98925.94;111252;1197;61854;-83
2021/09/13 02:38:18;;;;;;;27.90;22.80;;;;;;;16.15;92.76;98925.84;111338;1204;65427;-84
2021/09/13 02:40:45;;;;;;;24.70;22.20;;;;;;;16.16;92.65;98923.74;111468;1204;61832;-85
2021/09/13 02:43:11;;;;;;;25.00;21.90;;;;;;;16.17;92.47;98925.48;111512;1204;63975;-85
2021/09/13 02:45:38;;;;;;;26.00;23.20;;;;;;;16.17;92.60;98924.95;111392;1204;61881;-86
2021/09/13 02:48:05;;;;;;;24.50;21.40;;;;;;;16.17;92.54;98925.14;111632;1197;61780;-85
2021/09/13 02:50:31;;;;;;;25.20;22.50;;;;;;;16.18;92.50;98925.02;111426;1204;66849;-86
2021/09/13 02:52:58;;;;;;;26.40;23.70;;;;;;;16.17;92.61;98927.57;111283;1204;61829;-84
2021/09/13 02:55:25;;;;;;;23.70;21.30;;;;;;;16.16;92.35;98927.34;111138;1204;63659;-87
2021/09/13 02:57:52;;;;;;;23.20;20.60;;;;;;;16.14;92.31;98932.52;111158;1204;61902;-87
2021/09/13 03:00:20;;;;;;;23.00;20.60;;;;;;;16.14;92.45;98936.70;111264;1198;61931;-84
2021/09/13 03:02:47;;;;;;;26.50;23.90;;;;;;;16.12;92.65;98939.17;111168;1204;66593;-84
2021/09/13 03:05:13;;;;;;;27.60;24.80;;;;;;;16.07;92.65;98939.85;111210;1203;61870;-84
2021/09/13 03:07:40;;;;;;;27.70;24.30;;;;;;;16.02;92.79;98939.79;111144;1198;64027;-84
2021/09/13 03:10:07;;;;;;;30.40;27.20;;;;;;;16.00;92.88;98936.29;111153;1196;61893;-84
2021/09/13 03:12:35;;;;;;;29.30;26.10;;;;;;;16.03;93.08;98937.19;111196;1197;61791;-84
2021/09/13 03:15:04;;;;;;;29.70;26.80;;;;;;;16.04;93.20;98934.08;111166;1198;66786;-84
2021/09/13 03:17:31;;;;;;;30.00;26.90;;;;;;;16.03;93.34;98932.86;111255;1196;61882;-84
2021/09/13 03:19:58;;;;;;;30.60;27.30;;;;;;;16.03;93.42;98933.89;111185;1204;63580;-84
2021/09/13 03:22:25;;;;;;;30.80;27.50;;;;;;;16.00;93.43;98934.70;111220;1197;61997;-83
2021/09/13 03:24:52;;;;;;;31.10;27.90;;;;;;;15.98;93.46;98931.67;111247;1196;61841;-84
2021/09/13 03:27:19;;;;;;;32.10;28.90;;;;;;;15.99;93.55;98931.77;111232;1204;66857;-84
2021/09/13 03:29:45;;;;;;;31.80;28.70;;;;;;;15.98;93.42;98939.39;111228;1204;61902;-84
2021/09/13 03:32:12;;;;;;;30.10;27.20;;;;;;;15.94;93.58;98945.52;111196;1196;63663;-84
2021/09/13 03:34:38;;;;;;;31.00;27.90;;;;;;;15.85;93.58;98945.05;111235;1196;61902;-84
2021/09/13 03:37:05;;;;;;;29.00;26.20;;;;;;;15.81;93.70;98946.30;111284;1196;61848;-84
2021/09/13 03:39:32;;;;;;;27.40;24.60;;;;;;;15.79;93.83;98948.80;111189;1204;65433;-84
2021/09/13 03:41:58;;;;;;;28.00;25.30;;;;;;;15.77;93.97;98948.42;111201;1204;61880;-84
2021/09/13 03:44:25;;;;;;;26.80;24.10;;;;;;;15.74;94.19;98949.04;111241;1203;64018;-84
2021/09/13 03:46:53;;;;;;;28.10;25.40;;;;;;;15.73;94.34;98950.42;111194;1197;61994;-84
2021/09/13 03:49:20;;;;;;;26.30;23.70;;;;;;;15.70;94.66;98951.88;111197;1197;61910;-84
2021/09/13 03:51:47;;;;;;;27.10;24.50;;;;;;;15.68;94.87;98951.17;111206;1204;66834;-84
2021/09/13 03:54:14;;;;;;;26.60;23.90;;;;;;;15.68;95.10;98949.38;111213;1204;61879;-84
2021/09/13 03:56:40;;;;;;;26.50;23.90;;;;;;;15.67;94.99;98950.01;111201;1204;63985;-84
2021/09/13 03:59:07;;;;;;;26.10;23.30;;;;;;;15.65;95.04;98946.98;111226;1204;61962;-84
2021/09/13 04:01:33;;;;;;;25.50;23.10;;;;;;;15.62;95.25;98947.27;111266;1197;61934;-84
2021/09/13 04:04:02;;;;;;;24.00;21.70;;;;;;;15.58;95.38;98940.41;111224;1204;67036;-84
2021/09/13 04:11:27;;;;;;;24.30;21.80;;;;;;;15.63;95.48;98939.95;111221;1204;61902;-84
2021/09/13 04:13:54;;;;;;;25.80;23.30;;;;;;;15.59;95.46;98942.67;111267;1196;61744;-84
2021/09/13 04:16:20;;;;;;;26.00;23.20;;;;;;;15.55;95.51;98944.77;111236;1204;65429;-84
2021/09/13 04:18:47;;;;;;;24.30;22.00;;;;;;;15.57;95.69;98938.91;111237;1197;61832;-84
2021/09/13 04:21:14;;;;;;;23.90;21.40;;;;;;;15.61;95.70;98937.84;111197;1204;62712;-84
2021/09/13 04:23:40;;;;;;;23.40;20.80;;;;;;;15.64;95.81;98944.59;111238;1197;61886;-84
2021/09/13 04:26:07;;;;;;;23.60;21.30;;;;;;;15.62;95.69;98948.52;111250;1196;62260;-84
2021/09/13 04:28:33;;;;;;;25.50;23.00;;;;;;;15.61;95.80;98955.75;111250;1204;66823;-83
2021/09/13 04:31:00;;;;;;;23.40;21.00;;;;;;;15.63;96.01;98953.98;111248;1204;61786;-84
2021/09/13 04:33:27;;;;;;;24.20;21.90;;;;;;;15.69;96.16;98952.06;111179;1204;63998;-84
2021/09/13 04:35:53;;;;;;;25.40;22.90;;;;;;;15.71;96.09;98957.77;111246;1204;62010;-83
2021/09/13 04:38:20;;;;;;;25.10;22.70;;;;;;;15.73;96.07;98960.94;111225;1204;61893;-83
2021/09/13 04:40:46;;;;;;;23.70;21.60;;;;;;;15.79;96.33;98960.98;111214;1196;66832;-83
2021/09/13 04:43:13;;;;;;;24.60;22.30;;;;;;;15.84;96.34;98960.77;111282;1204;61882;-83
2021/09/13 04:45:40;;;;;;;25.60;23.10;;;;;;;15.86;96.36;98960.39;111242;1204;62604;-84
2021/09/13 04:48:06;;;;;;;25.20;22.70;;;;;;;15.90;96.44;98961.65;111286;1204;61861;-86
2021/09/13 04:50:33;;;;;;;24.30;21.90;;;;;;;15.94;96.50;98962.67;111234;1196;61836;-84
2021/09/13 04:53:00;;;;;;;25.30;22.80;;;;;;;15.98;96.71;98964.51;111245;1204;66782;-84
2021/09/13 04:55:26;;;;;;;26.40;23.80;;;;;;;16.00;96.59;98966.04;111275;1197;61988;-84
2021/09/13 04:57:53;;;;;;;26.90;24.30;;;;;;;16.04;96.56;98964.88;111220;1204;64159;-83
2021/09/13 05:00:21;;;;;;;24.70;22.10;;;;;;;16.07;96.42;98965.31;111226;1196;61809;-84
2021/09/13 05:02:48;;;;;;;24.60;22.20;;;;;;;16.09;96.39;98964.07;111259;1198;61997;-84
2021/09/13 05:05:15;;;;;;;25.20;22.70;;;;;;;16.10;96.53;98969.34;111241;1204;66725;-84
2021/09/13 05:07:42;;;;;;;24.60;22.10;;;;;;;16.11;96.43;98970.32;111239;1196;61876;-84
2021/09/13 05:10:09;;;;;;;25.20;22.60;;;;;;;16.13;96.54;98971.04;111201;1204;63958;-84
2021/09/13 05:12:36;;;;;;;24.40;22.20;;;;;;;16.15;96.58;98967.91;111261;1197;61920;-86
2021/09/13 05:15:03;;;;;;;25.10;22.60;;;;;;;16.21;96.48;98966.55;111283;1196;61860;-84
2021/09/13 05:17:30;;;;;;;27.10;24.30;;;;;;;16.27;96.38;98970.64;111270;1204;66496;-84
2021/09/13 05:19:57;;;;;;;25.60;23.00;;;;;;;16.32;96.28;98970.16;111238;1204;61809;-84
2021/09/13 05:22:23;;;;;;;24.60;22.40;;;;;;;16.40;96.33;98966.20;111245;1204;62940;-84
2021/09/13 05:24:50;;;;;;;25.20;22.70;;;;;;;16.51;96.20;98966.46;111236;1197;61851;-84
2021/09/13 05:27:16;;;;;;;25.10;22.60;;;;;;;16.62;96.02;98966.39;111255;1204;61876;-84
2021/09/13 05:29:43;;;;;;;25.10;22.70;;;;;;;16.73;95.74;98967.54;111212;1204;66487;-84
2021/09/13 05:32:09;;;;;;;23.30;21.10;;;;;;;16.86;95.58;98963.81;111233;1203;61925;-84
2021/09/13 05:34:36;;;;;;;22.90;20.60;;;;;;;17.06;95.28;98968.54;111253;1204;64519;-84
2021/09/13 05:37:03;;;;;;;22.30;20.20;;;;;;;17.30;94.88;98967.70;111179;1197;61892;-84
2021/09/13 05:39:29;;;;;;;21.80;19.50;;;;;;;17.57;94.34;98967.86;111280;1196;61864;-84
2021/09/13 05:41:56;;;;;;;21.80;19.90;;;;;;;17.78;93.68;98967.29;111255;1204;66795;-84
2021/09/13 05:44:23;;;;;;;22.30;20.00;;;;;;;17.81;93.56;98969.39;111233;1204;61804;-83
2021/09/13 05:46:51;;;;;;;23.20;20.90;;;;;;;17.82;93.33;98974.27;111347;1204;72653;-86
2021/09/13 05:49:18;;;;;;;22.70;20.50;;;;;;;17.86;93.22;98977.86;111457;1204;61835;-85
2021/09/13 05:51:51;;;;;;;22.20;20.10;;;;;;;17.87;93.26;98982.21;111761;1196;61825;-84
2021/09/13 05:54:22;;;;;;;22.30;20.20;;;;;;;17.87;93.17;98982.00;111388;1204;67799;-85
2021/09/13 05:56:50;;;;;;;24.10;21.80;;;;;;;17.90;93.07;98983.15;111653;1204;61951;-84
2021/09/13 05:59:17;;;;;;;23.60;21.30;;;;;;;17.93;93.03;98980.70;111743;1204;63864;-86
2021/09/13 06:01:43;;;;;;;23.50;21.20;;;;;;;18.01;92.85;98979.05;111289;1197;61906;-84
2021/09/13 06:04:10;;;;;;;22.90;20.60;;;;;;;18.11;92.44;98982.73;111250;1198;61818;-85
2021/09/13 06:06:37;;;;;;;22.10;19.90;;;;;;;18.27;92.20;98978.30;111190;1204;65472;-88
2021/09/13 06:09:05;;;;;;;21.70;19.60;;;;;;;18.47;91.58;98980.06;111305;1204;61877;-85
2021/09/13 06:11:31;;;;;;;21.60;19.50;;;;;;;18.60;91.25;98980.52;111296;1204;62423;-86
2021/09/13 06:13:58;;;;;;;21.10;19.30;;;;;;;18.72;90.78;98983.84;111234;1203;61866;-86
2021/09/13 06:16:25;;;;;;;22.70;20.00;;;;;;;18.85;90.29;98985.05;111243;1196;61754;-84
2021/09/13 06:18:52;;;;;;;21.90;20.00;;;;;;;18.95;90.20;98983.55;111245;1204;66801;-84
2021/09/13 06:21:19;;;;;;;21.70;19.70;;;;;;;19.03;90.00;98986.55;111322;1198;61966;-83
2021/09/13 06:23:46;;;;;;;22.50;20.20;;;;;;;19.09;89.76;98993.11;111246;1196;63964;-85
2021/09/13 06:26:14;;;;;;;24.60;22.00;;;;;;;19.13;89.66;98996.52;111238;1197;61887;-83
2021/09/13 06:28:40;;;;;;;22.90;20.50;;;;;;;19.15;89.68;98994.10;111232;1204;61816;-84
2021/09/13 06:31:07;;;;;;;23.10;20.90;;;;;;;19.22;89.70;98995.02;111247;1204;66843;-84
2021/09/13 06:33:34;;;;;;;23.20;20.90;;;;;;;19.31;89.40;98994.86;111255;1204;61893;-85
2021/09/13 06:36:02;;;;;;;22.90;20.70;;;;;;;19.31;88.83;98998.61;111262;1204;72698;-85
2021/09/13 06:38:32;;;;;;;24.20;21.90;;;;;;;19.37;88.82;98998.18;111201;1197;61819;-84
2021/09/13 06:40:59;;;;;;;23.50;20.90;;;;;;;19.44;88.37;98992.33;111242;1204;61868;-84
2021/09/13 06:43:28;;;;;;;24.20;21.70;;;;;;;19.57;88.20;98994.31;111176;1197;66785;-84
2021/09/13 06:46:08;;;;;;;24.00;21.50;;;;;;;19.73;88.03;98995.48;111158;1204;68917;-84
2021/09/13 06:48:35;;;;;;;;;;;;;;;19.93;87.60;98999.59;111125;1204;63973;-82
2021/09/13 06:51:02;;;;;;;23.30;21.10;;;;;;;19.97;87.28;99004.77;110995;1204;61887;-82
2021/09/13 06:53:29;;;;;;;24.50;22.10;;;;;;;19.97;87.29;99009.77;110870;1204;61886;-82
2021/09/13 06:55:55;;;;;;;24.10;21.80;;;;;;;20.03;87.29;99008.44;110978;1204;67523;-82
2021/09/13 06:58:22;;;;;;;24.00;21.60;;;;;;;20.10;86.92;99006.58;110968;1204;61917;-83
2021/09/13 07:00:49;;;;;;;26.20;23.50;;;;;;;20.13;86.38;99007.20;111184;1204;63919;-83
2021/09/13 07:03:17;;;;;;;25.90;23.20;;;;;;;20.10;86.37;99006.80;111197;1204;61995;-85
2021/09/13 07:05:43;;;;;;;25.00;22.40;;;;;;;20.05;86.57;99009.63;111145;1204;61865;-83
2021/09/13 07:08:15;;;;;;;29.00;26.10;;;;;;;20.00;86.88;99012.70;111437;1204;65436;-91
2021/09/13 07:10:41;;;;;;;27.70;24.90;;;;;;;19.96;86.75;99012.70;111990;1197;61930;-92
2021/09/13 07:13:09;;;;;;;27.70;25.00;;;;;;;20.02;86.58;99012.63;111207;1204;63675;-85
2021/09/13 07:15:35;;;;;;;29.00;26.10;;;;;;;20.23;86.17;99014.56;111186;1204;61922;-82
2021/09/13 07:18:02;;;;;;;30.50;27.40;;;;;;;20.51;85.75;99017.13;111152;1203;61888;-82
2021/09/13 07:20:29;;;;;;;31.30;28.10;;;;;;;20.80;85.25;99014.89;111265;1204;67808;-82
2021/09/13 07:22:56;;;;;;;31.70;28.70;;;;;;;21.05;84.58;99016.49;111226;1204;61925;-83
2021/09/13 07:25:23;;;;;;;29.40;26.50;;;;;;;21.26;84.25;99015.52;111178;1204;65028;-83
2021/09/13 07:27:49;;;;;;;30.00;27.10;;;;;;;21.45;83.98;99015.86;111210;1195;61874;-83
2021/09/13 07:30:16;;;;;;;32.80;29.60;;;;;;;21.56;83.70;99017.75;111187;1204;61883;-83
2021/09/13 07:32:43;;;;;;;33.80;30.50;;;;;;;21.49;83.48;99017.42;111205;1198;65134;-83
2021/09/13 07:35:10;;;;;;;33.10;29.90;;;;;;;21.34;83.19;99019.48;111186;1204;61906;-83
2021/09/13 07:37:39;;;;;;;33.10;29.80;;;;;;;21.12;83.16;99024.96;111237;1204;62332;-83
2021/09/13 07:40:08;;;;;;;32.00;28.90;;;;;;;20.96;83.60;99026.91;111165;1204;61900;-82
2021/09/13 07:42:35;;;;;;;32.80;29.50;;;;;;;20.87;83.91;99030.79;111234;1204;61913;-82
2021/09/13 07:45:03;;;;;;;33.20;29.90;;;;;;;20.79;84.12;99028.17;111211;1204;65374;-82
2021/09/13 07:47:33;;;;;;;34.00;30.40;;;;;;;20.70;84.19;99029.79;111279;1204;61907;-82
2021/09/13 07:50:00;;;;;;;34.20;31.00;;;;;;;20.64;84.40;99033.69;111210;1203;62659;-82
2021/09/13 07:52:26;;;;;;;35.70;32.40;;;;;;;20.64;84.66;99036.64;111238;1198;61847;-82
2021/09/13 07:54:53;;;;;;;36.60;33.00;;;;;;;20.67;84.87;99041.33;111245;1196;61918;-84
2021/09/13 07:57:20;;;;;;;37.40;33.60;;;;;;;20.76;84.64;99040.86;111225;1204;66760;-84
2021/09/13 07:59:46;;;;;;;38.20;34.50;;;;;;;20.95;84.44;99040.17;111250;1204;61896;-82
2021/09/13 08:02:13;;;;;;;37.50;33.70;;;;;;;21.27;84.39;99040.52;111229;1204;62313;-84
2021/09/13 08:04:40;;;;;;;36.90;33.10;;;;;;;21.47;83.54;99042.09;111234;1204;61905;-81
2021/09/13 08:07:07;;;;;;;36.40;32.60;;;;;;;21.54;83.12;99037.34;111216;1203;61857;-82
2021/09/13 08:09:34;;;;;;;39.20;35.10;;;;;;;21.60;82.52;99041.91;111188;1203;66775;-82
2021/09/13 08:12:01;;;;;;;37.00;33.50;;;;;;;21.69;82.16;99045.61;111216;1204;61902;-82
2021/09/13 08:14:28;;;;;;;35.70;32.30;;;;;;;21.79;81.72;99050.30;111206;1197;63964;-82
2021/09/13 08:16:55;;;;;;;32.00;28.80;;;;;;;21.78;81.60;99049.63;111247;1204;61881;-82
2021/09/13 08:19:21;;;;;;;32.40;29.40;;;;;;;21.83;81.83;99048.84;111223;1197;61876;-82
2021/09/13 08:21:48;;;;;;;31.20;28.40;;;;;;;21.84;81.14;99051.63;111186;1204;65453;-82
2021/09/13 08:24:14;;;;;;;33.10;30.00;;;;;;;21.85;80.79;99056.64;111184;1204;61890;-82
2021/09/13 08:26:41;;;;;;;31.20;28.30;;;;;;;21.93;80.62;99052.86;111189;1204;63800;-82
2021/09/13 08:29:14;;;;;;;35.20;30.40;;;;;;;22.04;79.98;99053.98;111162;1204;61780;-82
2021/09/13 08:31:44;;;;;;;32.10;29.20;;;;;;;22.03;79.57;99055.73;111210;1204;61870;-82
2021/09/13 08:34:12;;;;;;;;;;;;;;;22.01;79.97;99057.71;111191;1204;67722;-82
2021/09/13 08:36:39;;;;;;;30.60;27.60;;;;;;;22.08;80.32;99059.58;111192;1204;61854;-82
2021/09/13 08:39:06;;;;;;;30.70;27.60;;;;;;;22.21;80.19;99059.22;111201;1197;63963;-82
2021/09/13 08:41:32;;;;;;;31.40;28.60;;;;;;;22.30;79.56;99058.25;111212;1204;61915;-82
2021/09/13 08:44:01;;;;;;;32.10;28.90;;;;;;;22.39;79.31;99055.25;111212;1198;61909;-82
2021/09/13 08:46:41;;;;;;;35.90;32.20;;;;;;;22.65;79.19;99055.25;111287;1204;75216;-82
2021/09/13 08:49:14;;;;;;;;;;;;;;;22.89;79.09;99055.21;111288;1204;62266;-82
2021/09/13 08:51:41;;;;;;;32.90;30.00;;;;;;;22.97;78.08;99055.85;111200;1204;64022;-82
2021/09/13 08:54:10;;;;;;;31.80;28.70;;;;;;;23.02;78.18;99054.23;111177;1195;61813;-82
2021/09/13 08:56:42;;;;;;;33.50;30.20;;;;;;;23.13;78.06;99059.58;111184;1197;61901;-81
2021/09/13 08:59:15;;;;;;;31.70;28.80;;;;;;;23.24;77.54;99061.44;111210;1204;67785;-82
2021/09/13 09:01:43;;;;;;;33.10;29.90;;;;;;;23.28;76.66;99064.02;111365;1204;61893;-81
2021/09/13 09:04:15;;;;;;;31.50;28.40;;;;;;;23.25;76.21;99062.08;111202;1204;64017;-81
2021/09/13 09:06:44;;;;;;;30.50;27.60;;;;;;;23.11;76.19;99063.48;111325;1204;61822;-84
2021/09/13 09:09:13;;;;;;;30.00;27.20;;;;;;;23.00;76.49;99056.98;111424;1198;61894;-85
2021/09/13 09:11:56;;;;;;;34.10;30.70;;;;;;;22.96;76.92;99064.34;111200;1204;67756;-86
2021/09/13 09:14:44;;;;;;;31.60;28.40;;;;;;;23.07;76.74;99064.56;111189;1204;61883;-85
2021/09/13 09:17:25;;;;;;;29.20;26.40;;;;;;;23.20;76.66;99060.92;111180;1204;64611;-83
2021/09/13 09:20:07;;;;;;;27.50;24.80;;;;;;;23.30;76.66;99059.98;111245;1204;61797;-83
2021/09/13 09:22:38;;;;;;;29.40;26.60;;;;;;;23.46;76.62;99056.79;111221;1204;61890;-83
2021/09/13 09:25:07;;;;;;;27.90;25.40;;;;;;;23.56;75.95;99056.27;111249;1204;67771;-83
2021/09/13 09:27:55;;;;;;;26.90;24.20;;;;;;;23.60;75.72;99054.00;111263;1198;61877;-83
2021/09/13 09:30:31;;;;;;;24.60;22.00;;;;;;;23.63;75.25;99050.95;111246;1203;65080;-82
2021/09/13 09:33:15;;;;;;;27.00;24.40;;;;;;;23.51;74.74;99049.84;111266;1204;62002;-82
2021/09/13 09:35:59;;;;;;;25.60;23.10;;;;;;;23.33;74.74;99053.80;111231;1204;61914;-82
2021/09/13 09:38:26;;;;;;;23.10;20.90;;;;;;;23.26;75.44;99055.36;111265;1204;65478;-82
2021/09/13 09:41:04;;;;;;;20.80;18.80;;;;;;;23.30;74.94;99053.13;111174;1204;61793;-82
2021/09/13 09:43:51;;;;;;;15.90;14.40;;;;;;;23.38;74.54;99050.16;111210;1204;64916;-82
2021/09/13 09:46:18;;;;;;;17.60;15.70;;;;;;;23.45;73.26;99049.08;111209;1204;61909;-82
2021/09/13 09:48:45;;;;;;;15.90;14.40;;;;;;;23.34;73.12;99048.30;111238;1197;61870;-82
2021/09/13 09:51:30;;;;;;;18.00;16.10;;;;;;;23.18;73.11;99046.02;111220;1204;66698;-82
2021/09/13 09:54:06;;;;;;;18.60;16.00;;;;;;;23.22;73.35;99046.96;111278;1204;61883;-82
2021/09/13 09:56:33;;;;;;;18.90;17.00;;;;;;;23.33;73.37;99047.14;111231;1204;64109;-83
2021/09/13 09:59:06;;;;;;;111.80;25.10;;;;;;;23.42;73.50;99042.81;111103;1197;61965;-83
2021/09/13 10:01:34;;;;;;;17.50;15.80;;;;;;;23.50;73.16;99041.82;111230;1196;61822;-82
2021/09/13 10:04:14;;;;;;;20.60;16.40;;;;;;;23.54;72.82;99042.43;111219;1204;67481;-82
2021/09/13 10:06:43;;;;;;;15.20;13.60;;;;;;;23.67;72.21;99042.18;111254;1204;62005;-82
2021/09/13 10:09:11;;;;;;;19.40;16.50;;;;;;;23.94;72.10;99039.55;111244;1204;63797;-82
2021/09/13 10:11:42;;;;;;;21.10;17.90;;;;;;;24.19;71.78;99035.66;111242;1204;61947;-83
2021/09/13 10:14:14;;;;;;;15.50;14.30;;;;;;;24.50;71.36;99034.19;111285;1198;61888;-83
2021/09/13 10:16:43;;;;;;;13.10;11.90;;;;;;;24.78;70.41;99036.06;111262;1204;65183;-83
2021/09/13 10:19:12;;;;;;;20.60;13.20;;;;;;;25.08;69.77;99030.08;111304;1204;70014;-82
2021/09/13 10:21:39;;;;;;;17.90;14.00;;;;;;;25.38;69.45;99028.10;111252;1204;63658;-82
2021/09/13 10:24:11;;;;;;;78.00;20.70;;;;;;;25.66;68.74;99030.92;111208;1195;61916;-83
2021/09/13 10:26:41;;;;;;;49.50;19.40;;;;;;;25.86;68.76;99028.48;111255;1197;61928;-83
2021/09/13 10:29:07;;;;;;;15.10;13.70;;;;;;;25.90;67.49;99026.33;111198;1203;67760;-83
2021/09/13 10:31:45;;;;;;;16.30;13.80;;;;;;;25.77;66.86;99023.98;111240;1197;61885;-83
2021/09/13 10:34:16;;;;;;;13.40;12.00;;;;;;;25.81;66.25;99025.46;111241;1204;62693;-83
2021/09/13 10:37:16;;;;;;;16.10;14.60;;;;;;;25.93;65.85;99022.19;111228;1196;61997;-82
2021/09/13 10:39:48;;;;;;;;;;;;;;;26.07;65.73;99017.60;111279;1204;61881;-82
2021/09/13 10:42:37;;;;;;;12.70;11.60;;;;;;;26.19;65.03;99022.77;111276;1204;65240;-82
2021/09/13 10:45:30;;;;;;;14.60;13.20;;;;;;;26.17;65.29;99020.60;111256;1204;61899;-84
2021/09/13 10:47:59;;;;;;;14.10;12.90;;;;;;;26.13;64.93;99021.70;111212;1204;62597;-84
2021/09/13 10:50:25;;;;;;;14.40;13.00;;;;;;;25.92;64.61;99024.61;111217;1197;62589;-83
2021/09/13 10:52:57;;;;;;;14.90;13.70;;;;;;;25.73;64.64;99023.79;111224;1195;61773;-83
2021/09/13 10:55:27;;;;;;;16.40;14.90;;;;;;;25.69;65.06;99020.66;111253;1204;67707;-83
2021/09/13 10:58:01;;;;;;;21.00;15.30;;;;;;;25.55;65.94;99020.18;111278;1204;61806;-83
2021/09/13 11:00:40;;;;;;;19.90;13.80;;;;;;;25.34;66.12;99019.92;111239;1203;64980;-83
2021/09/13 11:06:06;;;;;;;13.70;12.50;;;;;;;24.74;65.43;99021.52;111234;1204;61770;-84
2021/09/13 11:08:38;;;;;;;14.40;13.00;;;;;;;24.47;65.34;99019.45;111284;1204;65435;-84
2021/09/13 11:11:25;;;;;;;14.20;13.00;;;;;;;24.39;65.86;99017.11;111199;1204;61806;-84
2021/09/13 11:14:11;;;;;;;12.20;11.10;;;;;;;24.53;66.04;99013.40;111256;1204;62773;-84
2021/09/13 11:16:41;;;;;;;13.10;12.00;;;;;;;24.66;66.04;99011.20;111231;1198;61867;-83
2021/09/13 11:19:10;;;;;;;;;;;;;;;24.73;65.92;99009.94;111281;1204;61803;-83
2021/09/13 11:21:45;;;;;;;13.10;11.80;;;;;;;24.76;64.79;99005.23;111263;1203;66657;-83
2021/09/13 11:24:21;;;;;;;13.30;12.20;;;;;;;24.67;63.96;99007.82;111256;1204;61890;-84
2021/09/13 11:26:47;;;;;;;17.30;13.20;;;;;;;24.65;64.88;99004.80;111231;1204;65846;-84